Houston, Texas
Traffic Map
Current Weather Conditions
Houston, Texas
Broken Clouds
Broken Clouds
37°
Feels Like: 41°
Wind Chill: 37° Ceiling: 25000
Heat Index: 41° Visibility: 10mi
Dew Point: 21° Wind: 3mph
Humidity: 40% Direction: 100° (E)
Pressure: 30.01in Gusts: 0mph
Raw Report DataKIAH 301953Z 10003KT 10SM FEW055 SCT150 BKN250 37/21 A3001 RMK AO2 SLP162 CB DSNT NE-E MOVG SW T03670211
Traffic Incident Summary
Active as of:
Severity:
Category:
InformationThere was an issue retrieving the traffic information for this location. Please try a different location or try again shortly.
Advertisements
Track Severe Weather on mobile